Iris Victoria — V7TS8 — position and weather

sailwx.info

Track history (hours):
 
Tides and Currents Weather Stations Pressure Air Temp Water Temp Dewpoint Dewpoint Depression Visibility Wind Speed Wind Dir Waves Ship Positions

Iris Victoria

Last reported at 2017-Apr-02 18:08 UTC. Time now 2017-Apr-24 23:04 UTC.
Position N 02°07' E 102°03'.
Warning: this ship's position is 22 days out of date.

Length 228 m; draft 8 m.

Type: Tanker. MMSI: 538003876.

Date/timePositionNaut miles runAvg speedWind from/ knotsBaromVisibWave heightAir tempDewpointWater temp
2017-Apr-02 18:08N 02°07' E 102°03'312.7
2017-Apr-02 17:53N 02°05' E 102°06'512.5
2017-Apr-02 17:28N 02°02' E 102°10'812.3
2017-Apr-02 16:47N 01°57' E 102°17'412.3
2017-Apr-02 16:28N 01°55' E 102°20'612.4
2017-Apr-02 16:00N 01°53' E 102°25'612.1
2017-Apr-02 15:30N 01°51' E 102°31'612.0
2017-Apr-02 15:00N 01°48' E 102°36'1311.4
2017-Apr-02 13:51N 01°42' E 102°48'3512.0
2017-Apr-02 10:57N 01°22' E 103°17'713.7
2017-Apr-02 10:28N 01°17' E 103°21'612.4
2017-Apr-02 10:00N 01°14' E 103°26'612.1
2017-Apr-02 09:30N 01°13' E 103°32'611.9
2017-Apr-02 09:00N 01°11' E 103°38'2 3.6
2017-Apr-02 08:30N 01°11' E 103°39'2 4.9
2017-Apr-02 08:00N 01°10' E 103°42'5 9.6
2017-Apr-02 07:30N 01°10' E 103°46'611.5
2017-Apr-02 07:00N 01°12' E 103°52'612.8
2017-Apr-02 06:30N 01°15' E 103°58'713.0
2017-Apr-02 06:00N 01°16' E 104°04'  
Track history (hours):
 
Tides and Currents Weather Stations Pressure Air Temp Water Temp Dewpoint Dewpoint Depression Visibility Wind Speed Wind Dir Waves Ship Positions

Iris Victoria

Last reported at 2017-Apr-02 18:08 UTC. Time now 2017-Apr-24 23:04 UTC.
Position N 02°07' E 102°03'.
Warning: this ship's position is 22 days out of date.

Length 228 m; draft 8 m.

Type: Tanker. MMSI: 538003876.

Date/timePositionNaut miles runAvg speedWind from/ knotsBaromVisibWave heightAir tempDewpointWater temp
2017-Apr-02 18:08N 02°07' E 102°03'312.7
2017-Apr-02 17:53N 02°05' E 102°06'512.5
2017-Apr-02 17:28N 02°02' E 102°10'812.3
2017-Apr-02 16:47N 01°57' E 102°17'412.3
2017-Apr-02 16:28N 01°55' E 102°20'612.4
2017-Apr-02 16:00N 01°53' E 102°25'612.1
2017-Apr-02 15:30N 01°51' E 102°31'612.0
2017-Apr-02 15:00N 01°48' E 102°36'1311.4
2017-Apr-02 13:51N 01°42' E 102°48'3512.0
2017-Apr-02 10:57N 01°22' E 103°17'713.7
2017-Apr-02 10:28N 01°17' E 103°21'612.4
2017-Apr-02 10:00N 01°14' E 103°26'612.1
2017-Apr-02 09:30N 01°13' E 103°32'611.9
2017-Apr-02 09:00N 01°11' E 103°38'2 3.6
2017-Apr-02 08:30N 01°11' E 103°39'2 4.9
2017-Apr-02 08:00N 01°10' E 103°42'5 9.6
2017-Apr-02 07:30N 01°10' E 103°46'611.5
2017-Apr-02 07:00N 01°12' E 103°52'612.8
2017-Apr-02 06:30N 01°15' E 103°58'713.0
2017-Apr-02 06:00N 01°16' E 104°04'  

Dump ship's entire track history